Terminal Aerodrome Forecast
Issued by NWS

Home | Current Version | Previous Version | Text Only | Print | Product List | Glossary On
Versions: 1 2 3 4 5 6 7 8 9 10 11 12 13
247
FTUS43 KEAX 261155 CCA
TAFSTJ
TAF COR
KSTJ 261155Z 2612/2712 33014KT P6SM OVC010
     FM261600 33015KT P6SM OVC020
     FM262200 33013KT P6SM BKN035
     FM270100 33009KT P6SM BKN040
      AMD NOT SKED=

USA.gov is the U.S. government's official web portal to all federal, state and local government web resources and services.